GIA5111 WADL-OEMA
Flight info
| Callsign | GIA5111 |
|---|---|
| Flight time | N/A |
| Altitude | 32000 |
| Route | DULOS T20 OKANG DCT SBR DCT MADIN M766 KIDET DCT TKG M766 SELSU/N0500F340 M766 KAT P570 TVM UL425 DONSA/N0489F360 UL425 ASPUX N315 SITOL DCT PUSON L883 KITUB Y511 ELONU |
| Aircraft | B77W/H-SDE1E2E3FGHIJ4J5M1RWXY/LB1D1 |
Departure
| Time | 2026-05-06 03:47 |
|---|---|
| Airport | Lombok International Airport (WADL) |
Arrival
| Time | N/A |
|---|---|
| Airport | Prince Mohammad Bin Abdulaziz Airport (OEMA) |
| Time | Latitude | Longitude | Altitude | Speed | Heading |
|---|---|---|---|---|---|
| 2026-05-06 03:31 | -8.76160 | 116.27508 | 339 ft | 0 kts | 219° |
| 2026-05-06 03:37 | -8.76155 | 116.27512 | 338 ft | 4 kts | 218° |
| 2026-05-06 03:37 | -8.76134 | 116.27528 | 336 ft | 4 kts | 219° |
| 2026-05-06 03:38 | -8.76118 | 116.27543 | 333 ft | 2 kts | 236° |
| 2026-05-06 03:38 | -8.76113 | 116.27554 | 333 ft | 2 kts | 260° |
| 2026-05-06 03:38 | -8.76112 | 116.27565 | 333 ft | 2 kts | 282° |
| 2026-05-06 03:38 | -8.76116 | 116.27577 | 333 ft | 2 kts | 295° |
| 2026-05-06 03:39 | -8.76121 | 116.27587 | 333 ft | 2 kts | 302° |
| 2026-05-06 03:39 | -8.76127 | 116.27596 | 333 ft | 1 kts | 307° |
| 2026-05-06 03:40 | -8.76120 | 116.27586 | 333 ft | 3 kts | 308° |
| 2026-05-06 03:41 | -8.76104 | 116.27567 | 333 ft | 4 kts | 309° |
| 2026-05-06 03:41 | -8.76081 | 116.27539 | 333 ft | 6 kts | 309° |
| 2026-05-06 03:41 | -8.76052 | 116.27502 | 334 ft | 7 kts | 309° |
| 2026-05-06 03:41 | -8.76017 | 116.27458 | 336 ft | 9 kts | 309° |
| 2026-05-06 03:42 | -8.75976 | 116.27407 | 333 ft | 10 kts | 309° |
| 2026-05-06 03:42 | -8.75930 | 116.27350 | 334 ft | 10 kts | 309° |
| 2026-05-06 03:42 | -8.75870 | 116.27318 | 334 ft | 11 kts | 12° |
| 2026-05-06 03:42 | -8.75802 | 116.27334 | 336 ft | 10 kts | 343° |
| 2026-05-06 03:43 | -8.75749 | 116.27284 | 333 ft | 11 kts | 308° |
| 2026-05-06 03:43 | -8.75703 | 116.27227 | 336 ft | 11 kts | 309° |
| 2026-05-06 03:43 | -8.75656 | 116.27168 | 334 ft | 11 kts | 309° |
| 2026-05-06 03:43 | -8.75604 | 116.27104 | 333 ft | 12 kts | 309° |
| 2026-05-06 03:44 | -8.75548 | 116.27034 | 333 ft | 13 kts | 308° |
| 2026-05-06 03:44 | -8.75487 | 116.26957 | 333 ft | 15 kts | 309° |
| 2026-05-06 03:44 | -8.75418 | 116.26871 | 332 ft | 17 kts | 309° |
| 2026-05-06 03:44 | -8.75342 | 116.26776 | 333 ft | 18 kts | 309° |
| 2026-05-06 03:45 | -8.75260 | 116.26673 | 331 ft | 19 kts | 309° |
| 2026-05-06 03:45 | -8.75179 | 116.26571 | 332 ft | 18 kts | 309° |
| 2026-05-06 03:45 | -8.75118 | 116.26497 | 331 ft | 10 kts | 310° |
| 2026-05-06 03:45 | -8.75054 | 116.26483 | 330 ft | 11 kts | 20° |
| 2026-05-06 03:46 | -8.74988 | 116.26532 | 325 ft | 12 kts | 39° |
| 2026-05-06 03:46 | -8.74969 | 116.26574 | 326 ft | 10 kts | 94° |
| 2026-05-06 03:46 | -8.74985 | 116.26607 | 326 ft | 1 kts | 127° |
| 2026-05-06 03:46 | -8.75012 | 116.26643 | 325 ft | 19 kts | 129° |
| 2026-05-06 03:47 | -8.75247 | 116.26935 | 330 ft | 93 kts | 129° |
| 2026-05-06 03:47 | -8.75814 | 116.27640 | 335 ft | 164 kts | 129° |
| 2026-05-06 03:47 | -8.76654 | 116.28671 | 478 ft | 204 kts | 130° |
| 2026-05-06 03:47 | -8.77548 | 116.29789 | 1256 ft | 205 kts | 129° |
| 2026-05-06 03:48 | -8.78736 | 116.31268 | 2341 ft | 208 kts | 128° |
| 2026-05-06 03:48 | -8.79375 | 116.32063 | 2524 ft | 223 kts | 128° |
| 2026-05-06 03:48 | -8.80400 | 116.33335 | 2861 ft | 240 kts | 129° |
| 2026-05-06 03:48 | -8.81462 | 116.34652 | 3481 ft | 240 kts | 127° |
| 2026-05-06 03:49 | -8.82190 | 116.36156 | 3927 ft | 245 kts | 94° |
| 2026-05-06 03:49 | -8.81894 | 116.37832 | 4483 ft | 249 kts | 63° |
| 2026-05-06 03:49 | -8.80810 | 116.39213 | 5071 ft | 253 kts | 41° |
| 2026-05-06 03:49 | -8.79345 | 116.40159 | 5817 ft | 252 kts | 28° |
| 2026-05-06 03:50 | -8.77762 | 116.40906 | 6400 ft | 256 kts | 26° |
| 2026-05-06 03:50 | -8.76092 | 116.41649 | 6921 ft | 262 kts | 26° |
| 2026-05-06 03:50 | -8.74434 | 116.42395 | 7418 ft | 268 kts | 26° |
| 2026-05-06 03:50 | -8.72713 | 116.43183 | 7940 ft | 274 kts | 27° |
| 2026-05-06 03:51 | -8.70964 | 116.43996 | 8485 ft | 279 kts | 27° |
| 2026-05-06 03:51 | -8.69186 | 116.44824 | 9046 ft | 284 kts | 27° |
| 2026-05-06 03:51 | -8.67332 | 116.45538 | 9498 ft | 291 kts | 10° |
| 2026-05-06 03:51 | -8.65281 | 116.45391 | 9901 ft | 303 kts | 341° |
| 2026-05-06 03:52 | -8.63483 | 116.44244 | 10266 ft | 315 kts | 315° |
| 2026-05-06 03:52 | -8.61991 | 116.42535 | 10423 ft | 334 kts | 311° |
| 2026-05-06 03:52 | -8.60465 | 116.40666 | 10574 ft | 355 kts | 310° |
| 2026-05-06 03:52 | -8.58864 | 116.38684 | 10776 ft | 372 kts | 310° |
| 2026-05-06 03:53 | -8.57208 | 116.36642 | 11337 ft | 377 kts | 309° |
| 2026-05-06 03:53 | -8.55536 | 116.34594 | 12027 ft | 379 kts | 309° |
| 2026-05-06 03:53 | -8.53850 | 116.32545 | 12685 ft | 381 kts | 309° |
| 2026-05-06 03:53 | -8.52137 | 116.30471 | 13254 ft | 387 kts | 309° |
| 2026-05-06 03:54 | -8.50402 | 116.28374 | 13866 ft | 390 kts | 309° |
| 2026-05-06 03:54 | -8.48651 | 116.26261 | 14369 ft | 395 kts | 309° |
| 2026-05-06 03:54 | -8.46878 | 116.24123 | 14882 ft | 399 kts | 309° |
| 2026-05-06 03:54 | -8.45084 | 116.21969 | 15399 ft | 402 kts | 310° |
| 2026-05-06 03:55 | -8.43139 | 116.19924 | 15952 ft | 405 kts | 316° |
| 2026-05-06 03:55 | -8.41065 | 116.17996 | 16511 ft | 407 kts | 316° |
| 2026-05-06 03:55 | -8.38970 | 116.16066 | 17102 ft | 408 kts | 316° |
| 2026-05-06 03:55 | -8.36874 | 116.14124 | 17667 ft | 410 kts | 316° |
| 2026-05-06 03:56 | -8.34802 | 116.12187 | 18186 ft | 413 kts | 316° |
| 2026-05-06 03:56 | -8.32693 | 116.10208 | 18617 ft | 416 kts | 316° |
| 2026-05-06 03:56 | -8.30568 | 116.08213 | 19048 ft | 419 kts | 316° |
| 2026-05-06 03:56 | -8.28433 | 116.06208 | 19464 ft | 421 kts | 316° |
| 2026-05-06 03:57 | -8.26275 | 116.04182 | 19906 ft | 424 kts | 316° |
| 2026-05-06 03:57 | -8.24112 | 116.02152 | 20335 ft | 427 kts | 316° |
| 2026-05-06 03:57 | -8.21931 | 116.00102 | 20743 ft | 430 kts | 316° |
| 2026-05-06 03:57 | -8.19739 | 115.98042 | 21168 ft | 432 kts | 316° |
| 2026-05-06 03:58 | -8.17531 | 115.95971 | 21584 ft | 435 kts | 316° |
| 2026-05-06 03:58 | -8.15376 | 115.93832 | 21908 ft | 436 kts | 309° |
| 2026-05-06 03:58 | -8.13655 | 115.91299 | 22173 ft | 440 kts | 297° |
| 2026-05-06 03:58 | -8.12448 | 115.88468 | 22653 ft | 439 kts | 287° |
| 2026-05-06 03:59 | -8.11731 | 115.85477 | 22985 ft | 441 kts | 281° |
| 2026-05-06 03:59 | -8.11124 | 115.82420 | 23257 ft | 446 kts | 281° |
| 2026-05-06 03:59 | -8.10535 | 115.79352 | 23725 ft | 445 kts | 281° |
| 2026-05-06 03:59 | -8.09942 | 115.76278 | 24016 ft | 448 kts | 281° |
| 2026-05-06 04:00 | -8.09335 | 115.73180 | 24297 ft | 451 kts | 281° |
| 2026-05-06 04:00 | -8.08718 | 115.70083 | 24682 ft | 451 kts | 281° |
| 2026-05-06 04:00 | -8.08091 | 115.66976 | 24999 ft | 453 kts | 281° |
| 2026-05-06 04:00 | -8.07455 | 115.63856 | 25259 ft | 456 kts | 281° |
| 2026-05-06 04:01 | -8.06812 | 115.60716 | 25611 ft | 456 kts | 281° |
| 2026-05-06 04:01 | -8.06175 | 115.57616 | 25938 ft | 458 kts | 281° |
| 2026-05-06 04:01 | -8.05526 | 115.54455 | 26149 ft | 463 kts | 281° |
| 2026-05-06 04:01 | -8.04872 | 115.51269 | 26432 ft | 465 kts | 281° |
| 2026-05-06 04:02 | -8.04207 | 115.48031 | 26763 ft | 466 kts | 281° |
| 2026-05-06 04:02 | -8.03548 | 115.44824 | 27057 ft | 468 kts | 281° |
| 2026-05-06 04:02 | -8.02895 | 115.41647 | 27330 ft | 470 kts | 281° |
| 2026-05-06 04:02 | -8.02231 | 115.38414 | 27611 ft | 472 kts | 281° |
| 2026-05-06 04:03 | -8.01563 | 115.35164 | 27902 ft | 474 kts | 281° |
| 2026-05-06 04:03 | -8.00892 | 115.31899 | 28179 ft | 476 kts | 281° |
| 2026-05-06 04:03 | -8.00220 | 115.28631 | 28465 ft | 477 kts | 281° |
| 2026-05-06 04:03 | -7.99543 | 115.25344 | 28742 ft | 479 kts | 281° |
| 2026-05-06 04:04 | -7.98865 | 115.22051 | 29002 ft | 481 kts | 281° |
| 2026-05-06 04:04 | -7.98183 | 115.18741 | 29260 ft | 483 kts | 281° |
| 2026-05-06 04:04 | -7.97499 | 115.15421 | 29511 ft | 484 kts | 281° |
| 2026-05-06 04:04 | -7.96811 | 115.12088 | 29760 ft | 486 kts | 281° |
| 2026-05-06 04:05 | -7.96123 | 115.08746 | 29985 ft | 488 kts | 281° |
| 2026-05-06 04:05 | -7.95430 | 115.05390 | 30175 ft | 489 kts | 281° |
| 2026-05-06 04:05 | -7.94735 | 115.02023 | 30363 ft | 491 kts | 281° |
| 2026-05-06 04:05 | -7.94039 | 114.98649 | 30549 ft | 492 kts | 281° |
| 2026-05-06 04:06 | -7.93339 | 114.95265 | 30725 ft | 493 kts | 281° |
| 2026-05-06 04:06 | -7.92639 | 114.91875 | 30890 ft | 494 kts | 281° |
| 2026-05-06 04:06 | -7.91936 | 114.88476 | 31053 ft | 496 kts | 281° |
| 2026-05-06 04:06 | -7.91232 | 114.85073 | 31197 ft | 497 kts | 281° |
| 2026-05-06 04:07 | -7.90525 | 114.81659 | 31360 ft | 498 kts | 281° |
| 2026-05-06 04:07 | -7.89816 | 114.78234 | 31511 ft | 499 kts | 281° |
| 2026-05-06 04:07 | -7.89106 | 114.74807 | 31699 ft | 499 kts | 281° |
| 2026-05-06 04:07 | -7.88396 | 114.71381 | 31807 ft | 500 kts | 281° |
| 2026-05-06 04:08 | -7.86977 | 114.64539 | 31875 ft | 494 kts | 281° |
| 2026-05-06 04:08 | -7.85579 | 114.57806 | 31879 ft | 488 kts | 281° |
| 2026-05-06 04:09 | -7.84188 | 114.51104 | 31892 ft | 489 kts | 281° |
| 2026-05-06 04:09 | -7.82802 | 114.44435 | 31896 ft | 489 kts | 281° |
| 2026-05-06 04:10 | -7.81405 | 114.37718 | 31896 ft | 490 kts | 281° |
| 2026-05-06 04:10 | -7.80005 | 114.30991 | 31900 ft | 491 kts | 281° |
| 2026-05-06 04:11 | -7.78601 | 114.24254 | 31899 ft | 491 kts | 281° |
| 2026-05-06 04:11 | -7.77198 | 114.17513 | 31902 ft | 491 kts | 281° |
| 2026-05-06 04:12 | -7.75792 | 114.10770 | 31899 ft | 492 kts | 281° |
| 2026-05-06 04:12 | -7.74130 | 114.04084 | 31906 ft | 492 kts | 285° |
| 2026-05-06 04:13 | -7.72198 | 113.97467 | 31892 ft | 492 kts | 286° |
| 2026-05-06 04:13 | -7.70256 | 113.90847 | 31903 ft | 492 kts | 285° |
| 2026-05-06 04:14 | -7.68339 | 113.84219 | 31902 ft | 493 kts | 285° |
| 2026-05-06 04:14 | -7.66430 | 113.77580 | 31895 ft | 493 kts | 285° |
| 2026-05-06 04:15 | -7.64539 | 113.71000 | 31894 ft | 492 kts | 285° |
| 2026-05-06 04:15 | -7.62631 | 113.64372 | 31889 ft | 492 kts | 285° |
| 2026-05-06 04:16 | -7.60720 | 113.57743 | 31887 ft | 492 kts | 285° |
| 2026-05-06 04:16 | -7.58809 | 113.51114 | 31885 ft | 493 kts | 285° |